createdAt,value
2019-05-03T00:02:28.504Z,8.93
2019-05-03T00:05:27.379Z,8.91
2019-05-03T00:08:07.212Z,8.97
2019-05-03T00:10:42.444Z,8.97
2019-05-03T00:13:15.425Z,8.96
2019-05-03T00:16:09.922Z,8.99
2019-05-03T00:18:42.535Z,9.05
2019-05-03T00:21:14.418Z,9.03
2019-05-03T00:23:46.290Z,9.00
2019-05-03T00:26:18.180Z,9.01
2019-05-03T00:28:51.890Z,8.99
2019-05-03T00:31:23.836Z,9.02
2019-05-03T00:33:59.942Z,8.96
2019-05-03T00:36:45.790Z,8.98
2019-05-03T00:39:26.213Z,8.97
2019-05-03T00:41:58.094Z,8.95
2019-05-03T00:44:31.600Z,8.95
2019-05-03T00:47:03.610Z,8.90
2019-05-03T00:49:35.345Z,8.89
2019-05-03T00:52:07.146Z,8.86
2019-05-03T00:54:38.907Z,8.88
2019-05-03T00:57:12.076Z,8.91
2019-05-03T00:59:44.092Z,8.91
2019-05-03T01:02:16.264Z,8.92
2019-05-03T01:04:48.069Z,8.96
2019-05-03T01:07:22.103Z,8.99
2019-05-03T01:09:53.552Z,9.06
2019-05-03T01:12:25.406Z,9.05
2019-05-03T01:15:01.980Z,8.99
2019-05-03T01:17:36.589Z,8.97
2019-05-03T01:20:08.479Z,8.91
2019-05-03T01:22:42.434Z,9.05
2019-05-03T01:25:14.286Z,8.99
2019-05-03T01:27:46.228Z,9.00
2019-05-03T01:30:18.446Z,9.05
2019-05-03T01:32:52.222Z,9.10
2019-05-03T01:35:23.934Z,9.11
2019-05-03T01:37:55.981Z,9.23
2019-05-03T01:40:27.794Z,9.27
2019-05-03T01:42:59.619Z,9.20
2019-05-03T01:45:31.915Z,9.25
2019-05-03T01:48:13.878Z,9.28
2019-05-03T01:51:02.913Z,9.38
2019-05-03T01:53:36.035Z,9.43
2019-05-03T01:56:07.814Z,9.57
2019-05-03T01:58:41.742Z,9.60
2019-05-03T02:01:22.079Z,9.67
2019-05-03T02:04:04.128Z,9.72
2019-05-03T02:06:35.893Z,9.83
2019-05-03T02:09:09.733Z,9.86
2019-05-03T02:11:42.195Z,9.93
2019-05-03T02:14:14.428Z,9.97
2019-05-03T02:16:46.509Z,10.05
2019-05-03T02:19:18.602Z,10.03
2019-05-03T02:21:52.212Z,10.06
2019-05-03T02:24:24.064Z,10.15
2019-05-03T02:26:55.861Z,10.13
2019-05-03T02:29:27.786Z,10.18
2019-05-03T02:32:02.980Z,10.17
2019-05-03T02:34:33.683Z,10.13
2019-05-03T02:37:05.676Z,10.17
2019-05-03T02:39:37.773Z,10.21
2019-05-03T02:42:11.574Z,10.29
2019-05-03T02:44:45.907Z,10.26
2019-05-03T02:47:29.204Z,10.34
2019-05-03T02:50:06.159Z,10.33
2019-05-03T02:52:38.238Z,10.38
2019-05-03T02:55:11.886Z,10.42
2019-05-03T02:57:46.657Z,10.44
2019-05-03T03:00:19.531Z,10.43
2019-05-03T03:02:51.690Z,10.35
2019-05-03T03:05:25.263Z,10.33
2019-05-03T03:07:57.797Z,10.33
2019-05-03T03:10:30.849Z,10.27
2019-05-03T03:13:06.544Z,10.28
2019-05-03T03:15:45.677Z,10.29
2019-05-03T03:18:19.936Z,10.31
2019-05-03T03:20:56.144Z,10.26
2019-05-03T03:23:35.318Z,10.28
2019-05-03T03:26:07.923Z,10.23
2019-05-03T03:28:42.473Z,10.23
2019-05-03T03:32:29.697Z,10.17
2019-05-03T03:35:31.092Z,10.24
2019-05-03T03:38:05.727Z,10.19
2019-05-03T03:40:39.283Z,10.22
2019-05-03T03:43:15.696Z,10.26
2019-05-03T03:45:49.596Z,10.36
2019-05-03T03:48:26.344Z,10.29
2019-05-03T03:50:59.144Z,10.29
2019-05-03T03:53:35.578Z,10.32
2019-05-03T03:56:09.213Z,10.39
2019-05-03T03:58:41.057Z,10.47
2019-05-03T04:01:15.626Z,10.29
2019-05-03T04:03:47.324Z,10.35
2019-05-03T04:06:21.127Z,10.43
2019-05-03T04:08:56.090Z,10.44
2019-05-03T04:11:27.209Z,10.44
2019-05-03T04:14:00.598Z,10.40
2019-05-03T04:16:39.191Z,10.45
2019-05-03T04:19:17.619Z,10.51
2019-05-03T04:21:49.862Z,10.50
2019-05-03T04:24:21.966Z,10.55
2019-05-03T04:27:15.521Z,10.56
2019-05-03T04:29:40.245Z,10.46
2019-05-03T04:32:12.009Z,10.40
2019-05-03T04:34:45.413Z,10.46
2019-05-03T04:37:17.490Z,10.50
2019-05-03T04:39:49.612Z,10.40
2019-05-03T04:42:21.426Z,10.31
2019-05-03T04:44:55.963Z,10.12
2019-05-03T04:47:26.927Z,10.01
2019-05-03T04:49:58.753Z,9.79
2019-05-03T04:52:30.840Z,10.05
2019-05-03T04:55:02.759Z,9.88
2019-05-03T04:57:40.712Z,9.62
2019-05-03T05:00:11.708Z,9.86
2019-05-03T05:02:45.751Z,9.61
2019-05-03T05:05:17.445Z,9.81
2019-05-03T05:07:49.482Z,9.63
2019-05-03T05:10:21.472Z,9.62
2019-05-03T05:12:55.177Z,9.73
2019-05-03T05:15:26.920Z,9.76
2019-05-03T05:18:26.170Z,9.74
2019-05-03T05:21:11.416Z,9.73
2019-05-03T05:24:05.292Z,9.66
2019-05-03T05:26:45.447Z,9.78
2019-05-03T05:29:19.336Z,9.77
2019-05-03T05:31:51.431Z,9.71
2019-05-03T05:34:24.609Z,9.70
2019-05-03T05:36:56.794Z,9.49
2019-05-03T05:39:28.872Z,9.58
2019-05-03T05:42:00.702Z,9.48
2019-05-03T05:44:32.623Z,9.52
2019-05-03T05:47:25.289Z,9.53
2019-05-03T05:50:06.864Z,9.48
2019-05-03T05:52:38.887Z,9.58
2019-05-03T05:55:28.841Z,9.60
2019-05-03T05:58:12.391Z,9.68
2019-05-03T06:00:59.709Z,9.60
2019-05-03T06:03:31.544Z,9.65
2019-05-03T06:06:05.934Z,9.60
2019-05-03T06:08:44.716Z,9.57
2019-05-03T06:11:27.928Z,9.47
2019-05-03T06:14:11.898Z,9.53
2019-05-03T06:16:50.201Z,9.50
2019-05-03T06:19:35.530Z,9.57
2019-05-03T06:22:25.681Z,9.54
2019-05-03T06:25:07.075Z,9.62
2019-05-03T06:27:39.923Z,9.51
2019-05-03T06:30:27.017Z,9.48
2019-05-03T06:32:58.887Z,9.49
2019-05-03T06:35:31.012Z,9.63
2019-05-03T06:38:04.816Z,9.79
2019-05-03T06:40:36.481Z,9.72
2019-05-03T06:43:12.655Z,9.84
2019-05-03T06:45:49.073Z,9.68
2019-05-03T06:48:17.563Z,9.62
2019-05-03T06:50:49.239Z,9.67
2019-05-03T06:53:21.064Z,9.72
2019-05-03T06:55:55.252Z,9.68
2019-05-03T06:58:33.159Z,9.57
2019-05-03T07:01:22.394Z,9.59
2019-05-03T07:04:01.631Z,9.53
2019-05-03T07:06:46.627Z,9.51
2019-05-03T07:09:44.459Z,9.49
2019-05-03T07:12:16.593Z,9.45
2019-05-03T07:14:50.472Z,9.38
2019-05-03T07:17:24.743Z,9.55
2019-05-03T07:19:56.471Z,9.63
2019-05-03T07:22:28.267Z,9.68
2019-05-03T07:25:00.067Z,9.53
2019-05-03T07:27:32.101Z,9.58
2019-05-03T07:30:04.846Z,9.51
2019-05-03T07:32:39.097Z,9.50
2019-05-03T07:35:11.017Z,9.51
2019-05-03T07:37:44.994Z,9.76
2019-05-03T07:40:16.822Z,9.70
2019-05-03T07:42:48.893Z,9.87
2019-05-03T07:45:20.737Z,9.75
2019-05-03T07:47:52.576Z,9.85
2019-05-03T07:50:25.931Z,9.58
2019-05-03T07:52:58.078Z,9.54
2019-05-03T07:55:47.373Z,9.61
2019-05-03T07:58:21.976Z,9.31
2019-05-03T08:01:05.859Z,9.27
2019-05-03T08:03:31.038Z,9.30
2019-05-03T08:06:04.756Z,9.28
2019-05-03T08:08:36.700Z,9.37
2019-05-03T08:11:08.797Z,9.38
2019-05-03T08:13:40.821Z,9.31
2019-05-03T08:16:12.587Z,9.31
2019-05-03T08:18:45.742Z,9.49
2019-05-03T08:21:17.707Z,9.66
2019-05-03T08:23:49.701Z,9.63
2019-05-03T08:26:21.484Z,9.61
2019-05-03T08:28:54.470Z,9.77
2019-05-03T08:31:54.734Z,9.80
2019-05-03T08:34:49.445Z,9.91
2019-05-03T08:37:35.227Z,9.83
2019-05-03T08:40:07.854Z,9.49
2019-05-03T08:42:39.596Z,9.54
2019-05-03T08:45:11.875Z,9.55
2019-05-03T08:47:45.024Z,9.44
2019-05-03T08:50:21.351Z,9.42
2019-05-03T08:52:50.700Z,9.39
2019-05-03T08:55:24.850Z,9.16
2019-05-03T08:57:56.181Z,9.32
2019-05-03T09:00:29.726Z,9.36
2019-05-03T09:03:01.554Z,9.15
2019-05-03T09:05:35.795Z,9.56
2019-05-03T09:08:07.043Z,9.67
2019-05-03T09:10:51.555Z,9.91
2019-05-03T09:13:25.145Z,9.77
2019-05-03T09:15:57.253Z,9.72
2019-05-03T09:18:29.156Z,9.58
2019-05-03T09:21:00.967Z,10.09
2019-05-03T09:23:32.835Z,10.31
2019-05-03T09:26:04.901Z,10.21
2019-05-03T09:28:36.824Z,10.13
2019-05-03T09:31:08.790Z,9.87
2019-05-03T09:33:40.943Z,9.80
2019-05-03T09:36:14.701Z,9.70
2019-05-03T09:38:46.459Z,9.46
2019-05-03T09:41:18.416Z,9.72
2019-05-03T09:43:50.237Z,9.81
2019-05-03T09:46:24.253Z,10.20
2019-05-03T09:49:09.521Z,10.27
2019-05-03T09:51:29.709Z,10.58
2019-05-03T09:54:08.040Z,10.84
2019-05-03T09:56:58.968Z,10.53
2019-05-03T09:59:31.924Z,10.73
2019-05-03T10:02:04.725Z,10.48
2019-05-03T10:04:37.250Z,10.72
2019-05-03T10:07:09.587Z,10.62
2019-05-03T10:09:41.376Z,10.81
2019-05-03T10:12:19.167Z,11.02
2019-05-03T10:14:51.046Z,11.18
2019-05-03T10:17:55.503Z,11.70
2019-05-03T10:20:28.286Z,11.54
2019-05-03T10:23:07.050Z,11.98
2019-05-03T10:25:40.447Z,11.96
2019-05-03T10:28:12.614Z,11.80
2019-05-03T10:30:45.050Z,11.62
2019-05-03T10:33:25.814Z,12.01
2019-05-03T10:35:57.143Z,11.67
2019-05-03T10:38:29.085Z,11.55
2019-05-03T10:41:00.914Z,11.79
2019-05-03T10:43:32.875Z,11.85
2019-05-03T10:46:05.247Z,12.56
2019-05-03T10:48:37.437Z,12.46
2019-05-03T10:51:09.196Z,12.61
2019-05-03T10:53:45.452Z,12.86
2019-05-03T10:56:31.383Z,13.17
2019-05-03T10:59:06.209Z,13.26
2019-05-03T11:02:15.427Z,13.45
2019-05-03T11:04:47.669Z,12.98
2019-05-03T11:07:19.737Z,13.73
2019-05-03T11:09:55.085Z,12.90
2019-05-03T11:12:27.183Z,13.06
2019-05-03T11:14:59.474Z,13.24
2019-05-03T11:17:31.855Z,13.16
2019-05-03T11:20:05.261Z,13.26
2019-05-03T11:22:37.364Z,13.36
2019-05-03T11:25:09.653Z,13.72
2019-05-03T11:27:47.061Z,13.75
2019-05-03T11:30:19.353Z,13.92
2019-05-03T11:32:59.119Z,14.16
2019-05-03T11:35:56.109Z,13.94
2019-05-03T11:38:34.944Z,14.06
2019-05-03T11:41:07.303Z,14.47
2019-05-03T11:43:39.124Z,14.52
2019-05-03T11:46:10.941Z,13.83
2019-05-03T11:48:42.871Z,14.14
2019-05-03T11:51:15.263Z,15.11
2019-05-03T11:53:47.349Z,15.34
2019-05-03T11:56:19.162Z,15.69
2019-05-03T11:58:50.980Z,15.09
2019-05-03T12:01:28.077Z,15.08
2019-05-03T12:04:04.960Z,16.06
2019-05-03T12:06:37.449Z,17.20
2019-05-03T12:09:09.553Z,16.87
2019-05-03T12:11:42.151Z,17.75
2019-05-03T12:14:15.463Z,18.00
2019-05-03T12:17:16.074Z,18.57
2019-05-03T12:19:31.205Z,17.87
2019-05-03T12:22:01.835Z,17.42
2019-05-03T12:24:36.428Z,18.08
2019-05-03T12:27:08.046Z,17.84
2019-05-03T12:29:39.801Z,16.79
2019-05-03T12:32:11.877Z,17.53
2019-05-03T12:34:43.643Z,18.87
2019-05-03T12:37:16.105Z,18.64
2019-05-03T12:39:47.882Z,19.43
2019-05-03T12:42:19.795Z,19.68
2019-05-03T12:44:51.650Z,19.10
2019-05-03T12:47:25.160Z,19.46
2019-05-03T12:49:58.530Z,21.22
2019-05-03T12:52:31.166Z,22.13
2019-05-03T12:55:04.560Z,23.93
2019-05-03T12:57:36.938Z,25.62
2019-05-03T13:00:34.515Z,22.63
2019-05-03T13:03:10.474Z,23.59
2019-05-03T13:05:42.412Z,26.77
2019-05-03T13:08:39.545Z,25.69
2019-05-03T13:11:11.353Z,25.54
2019-05-03T13:13:45.247Z,26.55
2019-05-03T13:16:19.779Z,29.58
2019-05-03T13:18:51.664Z,28.29
2019-05-03T13:21:25.227Z,27.75
2019-05-03T13:23:57.525Z,26.70
2019-05-03T13:26:29.290Z,28.82
2019-05-03T13:29:01.247Z,28.31
2019-05-03T13:31:34.664Z,24.71
2019-05-03T13:34:06.915Z,23.39
2019-05-03T13:36:38.712Z,24.54
2019-05-03T13:39:14.397Z,24.24
2019-05-03T13:41:45.557Z,24.38
2019-05-03T13:44:17.814Z,24.03
2019-05-03T13:46:49.571Z,24.92
2019-05-03T13:49:21.543Z,27.73
2019-05-03T13:51:53.321Z,31.74
2019-05-03T13:54:25.697Z,33.87
2019-05-03T13:56:57.725Z,36.27
2019-05-03T13:59:29.836Z,37.78
2019-05-03T14:02:13.491Z,38.09
2019-05-03T14:04:48.745Z,39.64
2019-05-03T14:07:08.936Z,40.53
2019-05-03T14:09:41.451Z,40.31
2019-05-03T14:12:15.296Z,34.57
2019-05-03T14:14:56.552Z,29.30
2019-05-03T14:17:29.596Z,25.85
2019-05-03T14:20:09.745Z,29.54
2019-05-03T14:22:43.459Z,28.78
2019-05-03T14:25:15.671Z,26.17
2019-05-03T14:27:47.711Z,23.61
2019-05-03T14:30:21.221Z,22.86
2019-05-03T14:32:53.007Z,22.21
2019-05-03T14:35:25.462Z,21.61
2019-05-03T14:37:57.304Z,19.74
2019-05-03T14:40:29.311Z,18.77
2019-05-03T14:43:01.201Z,18.59
2019-05-03T14:45:34.840Z,21.18
2019-05-03T14:48:06.706Z,24.79
2019-05-03T14:50:38.616Z,27.37
2019-05-03T14:53:10.552Z,28.61
2019-05-03T14:56:05.404Z,31.74
2019-05-03T14:59:00.992Z,31.68
2019-05-03T15:01:38.685Z,34.81
2019-05-03T15:04:10.791Z,33.27
2019-05-03T15:06:42.813Z,30.96
2019-05-03T15:09:18.847Z,26.36
2019-05-03T15:11:49.330Z,23.47
2019-05-03T15:14:21.513Z,27.14
2019-05-03T15:16:55.598Z,31.01
2019-05-03T15:19:27.066Z,33.03
2019-05-03T15:21:59.177Z,28.19
2019-05-03T15:24:31.049Z,23.26
2019-05-03T15:27:04.884Z,22.89
2019-05-03T15:29:36.944Z,23.56
2019-05-03T15:32:08.786Z,26.06
2019-05-03T15:34:40.691Z,30.02
2019-05-03T15:37:14.696Z,31.66
2019-05-03T15:39:46.062Z,31.77
2019-05-03T15:42:20.210Z,33.19
2019-05-03T15:45:11.289Z,32.47
2019-05-03T15:48:02.165Z,32.82
2019-05-03T15:50:35.532Z,33.06
2019-05-03T15:53:08.051Z,32.69
2019-05-03T15:55:39.846Z,32.54
2019-05-03T15:58:12.150Z,30.83
2019-05-03T16:00:47.205Z,28.72
2019-05-03T16:03:19.399Z,29.92
2019-05-03T16:05:51.338Z,28.19
2019-05-03T16:08:24.824Z,25.63
2019-05-03T16:10:57.135Z,21.70
2019-05-03T16:13:29.238Z,19.74
2019-05-03T16:16:01.059Z,18.87
2019-05-03T16:18:32.926Z,17.96
2019-05-03T16:21:05.687Z,17.38
2019-05-03T16:23:37.812Z,17.08
2019-05-03T16:26:09.623Z,18.08
2019-05-03T16:28:55.774Z,18.46
2019-05-03T16:31:27.650Z,20.50
2019-05-03T16:33:59.574Z,19.72
2019-05-03T16:36:31.414Z,18.51
2019-05-03T16:39:04.760Z,18.39
2019-05-03T16:41:38.477Z,19.38
2019-05-03T16:44:10.596Z,20.11
2019-05-03T16:46:42.759Z,19.38
2019-05-03T16:49:15.882Z,19.37
2019-05-03T16:51:47.690Z,17.74
2019-05-03T16:54:19.587Z,17.23
2019-05-03T16:56:51.530Z,16.45
2019-05-03T16:59:24.747Z,15.19
2019-05-03T17:01:56.742Z,14.57
2019-05-03T17:04:36.895Z,14.31
2019-05-03T17:07:25.712Z,13.79
2019-05-03T17:10:02.311Z,13.73
2019-05-03T17:12:34.819Z,13.45
2019-05-03T17:15:08.089Z,13.32
2019-05-03T17:17:40.032Z,12.93
2019-05-03T17:20:12.357Z,12.78
2019-05-03T17:22:45.007Z,12.69
2019-05-03T17:25:17.024Z,12.58
2019-05-03T17:27:48.846Z,12.38
2019-05-03T17:30:25.116Z,12.46
2019-05-03T17:32:55.975Z,12.40
2019-05-03T17:35:28.094Z,12.39
2019-05-03T17:37:59.955Z,12.24
2019-05-03T17:40:57.012Z,12.15
2019-05-03T17:43:34.530Z,12.14
2019-05-03T17:46:07.880Z,12.09
2019-05-03T17:48:39.939Z,12.00
2019-05-03T17:51:30.748Z,11.98
2019-05-03T17:54:11.525Z,11.93
2019-05-03T17:56:59.256Z,11.78
2019-05-03T17:59:54.862Z,11.76
2019-05-03T18:02:47.223Z,11.82
2019-05-03T18:05:37.971Z,11.75
2019-05-03T18:08:35.551Z,11.71
2019-05-03T18:11:11.487Z,11.53
2019-05-03T18:13:44.615Z,11.32
2019-05-03T18:16:16.773Z,11.31
2019-05-03T18:18:48.748Z,11.34
2019-05-03T18:21:20.675Z,11.13
2019-05-03T18:23:54.545Z,11.15
2019-05-03T18:26:26.596Z,11.07
2019-05-03T18:28:58.737Z,10.95
2019-05-03T18:31:30.839Z,10.95
2019-05-03T18:34:06.321Z,10.94
2019-05-03T18:36:37.912Z,10.94
2019-05-03T18:39:11.342Z,10.88
2019-05-03T18:41:45.050Z,10.84
2019-05-03T18:44:44.962Z,10.73
2019-05-03T18:47:20.433Z,10.75
2019-05-03T18:49:52.456Z,10.77
2019-05-03T18:52:24.516Z,10.76
2019-05-03T18:54:56.501Z,10.74
2019-05-03T18:57:28.342Z,10.67
2019-05-03T19:00:00.269Z,10.64
2019-05-03T19:02:32.139Z,10.62
2019-05-03T19:05:05.094Z,10.60
2019-05-03T19:07:55.385Z,10.57
2019-05-03T19:10:36.207Z,10.52
2019-05-03T19:13:15.039Z,10.48
2019-05-03T19:15:47.058Z,10.44
2019-05-03T19:18:27.747Z,10.38
2019-05-03T19:20:59.634Z,10.30
2019-05-03T19:23:31.577Z,10.22
2019-05-03T19:26:05.398Z,10.16
2019-05-03T19:28:36.931Z,10.07
2019-05-03T19:31:09.313Z,9.98
2019-05-03T19:33:41.185Z,9.90
2019-05-03T19:36:13.248Z,9.82
2019-05-03T19:38:45.045Z,9.74
2019-05-03T19:41:17.238Z,9.63
2019-05-03T19:43:49.174Z,9.50
2019-05-03T19:46:21.362Z,9.39
2019-05-03T19:48:54.723Z,9.31
2019-05-03T19:51:27.136Z,9.22
2019-05-03T19:53:58.931Z,9.12
2019-05-03T19:56:31.173Z,9.05
2019-05-03T19:59:06.809Z,8.97
2019-05-03T20:02:00.740Z,8.90
2019-05-03T20:05:00.777Z,8.80
2019-05-03T20:07:42.932Z,8.65
2019-05-03T20:10:17.864Z,8.56
2019-05-03T20:12:48.761Z,8.43
2019-05-03T20:15:20.531Z,8.35
2019-05-03T20:17:59.273Z,8.28
2019-05-03T20:20:26.054Z,8.19
2019-05-03T20:22:59.087Z,8.12
2019-05-03T20:25:31.286Z,8.05
2019-05-03T20:28:04.966Z,8.01
2019-05-03T20:30:37.636Z,7.95
2019-05-03T20:33:09.732Z,7.91
2019-05-03T20:35:41.565Z,7.86
2019-05-03T20:38:15.236Z,7.80
2019-05-03T20:40:47.469Z,7.76
2019-05-03T20:43:47.901Z,7.73
2019-05-03T20:46:28.429Z,7.71
2019-05-03T20:49:04.422Z,7.68
2019-05-03T20:51:36.600Z,7.64
2019-05-03T20:54:09.299Z,7.59
2019-05-03T20:56:41.376Z,7.56
2019-05-03T20:59:14.776Z,7.50
2019-05-03T21:01:46.789Z,7.47
2019-05-03T21:04:19.660Z,7.43
2019-05-03T21:06:51.644Z,7.40
2019-05-03T21:09:24.129Z,7.36
2019-05-03T21:11:55.933Z,7.30
2019-05-03T21:14:27.938Z,7.25
2019-05-03T21:17:16.536Z,7.22
2019-05-03T21:20:03.566Z,7.18
2019-05-03T21:22:44.237Z,7.16
2019-05-03T21:25:21.495Z,7.14
2019-05-03T21:27:55.408Z,7.13
2019-05-03T21:30:27.338Z,7.12
2019-05-03T21:32:59.136Z,7.10
2019-05-03T21:35:40.849Z,7.06
2019-05-03T21:38:04.512Z,7.04
2019-05-03T21:40:36.623Z,7.02
2019-05-03T21:43:08.484Z,6.98
2019-05-03T21:45:48.640Z,6.97
2019-05-03T21:48:24.949Z,6.94
2019-05-03T21:50:57.177Z,6.91
2019-05-03T21:53:28.947Z,6.88
2019-05-03T21:56:00.989Z,6.86
2019-05-03T21:58:32.754Z,6.83
2019-05-03T22:01:08.113Z,6.80
2019-05-03T22:03:39.933Z,6.78
2019-05-03T22:06:15.429Z,6.74
2019-05-03T22:08:46.782Z,6.71
2019-05-03T22:11:19.239Z,6.70
2019-05-03T22:13:54.223Z,6.64
2019-05-03T22:16:51.859Z,6.59
2019-05-03T22:19:25.080Z,6.54
2019-05-03T22:22:21.918Z,6.48
2019-05-03T22:24:56.393Z,6.42
2019-05-03T22:27:34.840Z,6.35
2019-05-03T22:30:08.368Z,6.29
2019-05-03T22:32:40.474Z,6.23
2019-05-03T22:35:12.471Z,6.17
2019-05-03T22:37:44.688Z,6.15
2019-05-03T22:40:16.762Z,6.10
2019-05-03T22:42:48.646Z,6.07
2019-05-03T22:45:20.458Z,6.07
2019-05-03T22:47:52.573Z,6.08
2019-05-03T22:50:25.509Z,6.08
2019-05-03T22:52:57.785Z,6.05
2019-05-03T22:55:29.587Z,5.99
2019-05-03T22:58:01.478Z,5.92
2019-05-03T23:00:35.283Z,5.87
2019-05-03T23:03:06.839Z,5.83
2019-05-03T23:05:38.579Z,5.81
2019-05-03T23:08:10.487Z,5.81
2019-05-03T23:10:42.254Z,5.80
2019-05-03T23:13:15.411Z,5.77
2019-05-03T23:15:47.567Z,5.79
2019-05-03T23:18:19.626Z,5.77
2019-05-03T23:20:57.860Z,5.75
2019-05-03T23:23:47.289Z,5.75
2019-05-03T23:26:19.145Z,5.73
2019-05-03T23:28:51.215Z,5.71
2019-05-03T23:31:24.987Z,5.67
2019-05-03T23:33:56.786Z,5.70
2019-05-03T23:36:33.398Z,5.71
2019-05-03T23:39:06.285Z,5.73
2019-05-03T23:41:38.311Z,5.76
2019-05-03T23:44:10.069Z,5.81
2019-05-03T23:46:54.498Z,5.83
2019-05-03T23:49:26.063Z,5.84
2019-05-03T23:52:00.769Z,5.81
2019-05-03T23:54:32.528Z,5.81
2019-05-03T23:57:05.668Z,5.80
2019-05-03T23:59:37.467Z,5.80
